Barrow, AK

4:51 AM AKDT on September 02, 2015 (GMT -0800)
Wiley Post-Will Rogers Memorial | | Change Station
CLOSE
Current Station
Airport
Location: Barrow,
Elevation: 43 ft
Nearby Weather Stations

Elev 43 ft 71.28 °N, 156.79 °W | Updated 58 minutes ago

Overcast
Overcast
38 °F
Feels Like 34 °F
N
6
Wind Variable Wind from South

Today
High -- | Low -- °F
--% Chance of Precip.
Yesterday
High -- | Low -- °F
Precip. -- in
6:38 AM 10:11 PM
Waning Gibbous, 80% visible
Pressure 30.13 in
Visibility 10.0 miles
Clouds Overcast 700 ft
Windchill 34 °F
Dew Point 37 °F
Humidity 97%
Rainfall 0.00 in
Snow Depth Not available.
UV 0 out of 12
Pollen Not available.
Air Quality Not available.
Flu Activity Not available.
METAR PABR 021153Z 17005KT 10SM OVC007 03/03 A3012 RMK SLP201 60000 70001 T00330028 10044 20033 51003 $ VIA AUTODIAL
Pressure 30.13 in
Visibility 10.0 miles
Clouds Overcast 700 ft
Windchill 34 °F
Dew Point 37 °F
Humidity 97%
Rainfall 0.00 in
Snow Depth Not available.
UV 0 out of 12
Pollen Not available.
Air Quality Not available.
Flu Activity Not available.
METAR PABR 021153Z 17005KT 10SM OVC007 03/03 A3012 RMK SLP201 60000 70001 T00330028 10044 20033 51003 $ VIA AUTODIAL

10-Day Weather Forecast

×

Almanac

Astronomy

Sep. 02, 2015 Rise Set
Actual Time
Civil Twilight
Nautical Twilight
Astronomical Twilight
Moon
Length of Visible Light
Length of Day
Tomorrow will be .
, % of the Moon is Illuminated

Today's Extremes

State Highs State Lows

Community

WunderPhotos

Upload Photos

1,851,738 photos uploaded!

WunderBlogs® & News

Nearby

Air Quality

  Air Quality AQ Index Pollutant
Not available.

Snow Depth

Station Depth Elevation

Earthquake Activity

City Distance Mag. Time & Date
Minimum magnitude displayed is 2.5.

Coastal Water Temperatures

Place Temperature

Stations

Nearby Weather Stations

Station Location Temp. Windchill Dew Point Humidity Wind Precip. Elev Updated Type